sensor_id;sensor_type;location;lat;lon;timestamp;temperature;humidity
19898;DHT22;10111;50.814;4.572;2023-03-14T00:01:20;13.00;99.90
19898;DHT22;10111;50.814;4.572;2023-03-14T00:03:45;13.10;99.90
19898;DHT22;10111;50.814;4.572;2023-03-14T00:06:12;13.00;99.90
19898;DHT22;10111;50.814;4.572;2023-03-14T00:08:38;12.90;99.90
19898;DHT22;10111;50.814;4.572;2023-03-14T00:11:22;13.00;99.90
19898;DHT22;10111;50.814;4.572;2023-03-14T00:13:51;13.00;99.90
19898;DHT22;10111;50.814;4.572;2023-03-14T00:16:18;13.10;99.90
19898;DHT22;10111;50.814;4.572;2023-03-14T00:18:43;13.10;99.90
19898;DHT22;10111;50.814;4.572;2023-03-14T00:21:11;12.90;99.90
19898;DHT22;10111;50.814;4.572;2023-03-14T00:23:38;13.00;99.90
19898;DHT22;10111;50.814;4.572;2023-03-14T00:26:08;13.00;99.90
19898;DHT22;10111;50.814;4.572;2023-03-14T00:28:34;12.90;99.90
19898;DHT22;10111;50.814;4.572;2023-03-14T00:31:03;12.80;99.90
19898;DHT22;10111;50.814;4.572;2023-03-14T00:33:29;12.70;99.90
19898;DHT22;10111;50.814;4.572;2023-03-14T00:35:59;12.70;99.90
19898;DHT22;10111;50.814;4.572;2023-03-14T00:38:26;12.80;99.90
19898;DHT22;10111;50.814;4.572;2023-03-14T00:40:52;12.80;99.90
19898;DHT22;10111;50.814;4.572;2023-03-14T00:43:19;12.70;99.90
19898;DHT22;10111;50.814;4.572;2023-03-14T00:45:47;12.70;99.90
19898;DHT22;10111;50.814;4.572;2023-03-14T00:48:13;12.90;99.90
19898;DHT22;10111;50.814;4.572;2023-03-14T00:50:39;12.80;99.90
19898;DHT22;10111;50.814;4.572;2023-03-14T00:53:05;13.00;99.90
19898;DHT22;10111;50.814;4.572;2023-03-14T00:55:30;13.00;99.90
19898;DHT22;10111;50.814;4.572;2023-03-14T00:57:56;13.10;99.90
19898;DHT22;10111;50.814;4.572;2023-03-14T01:00:22;13.00;99.90
19898;DHT22;10111;50.814;4.572;2023-03-14T01:02:49;12.90;99.90
19898;DHT22;10111;50.814;4.572;2023-03-14T01:05:14;12.80;99.90
19898;DHT22;10111;50.814;4.572;2023-03-14T01:07:40;12.80;99.90
19898;DHT22;10111;50.814;4.572;2023-03-14T01:10:06;12.90;99.90
19898;DHT22;10111;50.814;4.572;2023-03-14T01:12:32;12.80;99.90
19898;DHT22;10111;50.814;4.572;2023-03-14T01:14:58;12.70;99.90
19898;DHT22;10111;50.814;4.572;2023-03-14T01:17:23;12.60;99.90
19898;DHT22;10111;50.814;4.572;2023-03-14T01:19:49;12.70;99.90
19898;DHT22;10111;50.814;4.572;2023-03-14T01:22:15;12.70;99.90
19898;DHT22;10111;50.814;4.572;2023-03-14T01:24:40;12.70;99.90
19898;DHT22;10111;50.814;4.572;2023-03-14T01:27:06;12.80;99.90
19898;DHT22;10111;50.814;4.572;2023-03-14T01:29:32;12.70;99.90
19898;DHT22;10111;50.814;4.572;2023-03-14T01:31:57;12.60;99.90
19898;DHT22;10111;50.814;4.572;2023-03-14T01:34:23;12.60;99.90
19898;DHT22;10111;50.814;4.572;2023-03-14T01:36:48;12.60;99.90
19898;DHT22;10111;50.814;4.572;2023-03-14T01:39:14;12.60;99.90
19898;DHT22;10111;50.814;4.572;2023-03-14T01:41:40;12.50;99.90
19898;DHT22;10111;50.814;4.572;2023-03-14T01:44:09;12.50;99.90
19898;DHT22;10111;50.814;4.572;2023-03-14T01:46:41;12.30;99.90
19898;DHT22;10111;50.814;4.572;2023-03-14T01:51:54;12.30;99.90
19898;DHT22;10111;50.814;4.572;2023-03-14T01:54:32;12.20;99.90
19898;DHT22;10111;50.814;4.572;2023-03-14T01:57:23;12.10;99.90
19898;DHT22;10111;50.814;4.572;2023-03-14T02:00:03;12.10;99.90
19898;DHT22;10111;50.814;4.572;2023-03-14T02:02:35;11.80;99.90
19898;DHT22;10111;50.814;4.572;2023-03-14T02:05:02;11.70;99.90
19898;DHT22;10111;50.814;4.572;2023-03-14T02:07:36;11.50;99.90
19898;DHT22;10111;50.814;4.572;2023-03-14T02:10:03;11.60;99.90
19898;DHT22;10111;50.814;4.572;2023-03-14T02:12:31;11.50;99.90
19898;DHT22;10111;50.814;4.572;2023-03-14T02:14:57;11.60;99.90
19898;DHT22;10111;50.814;4.572;2023-03-14T02:17:24;11.60;99.90
19898;DHT22;10111;50.814;4.572;2023-03-14T02:22:33;11.40;99.90
19898;DHT22;10111;50.814;4.572;2023-03-14T02:25:24;11.20;99.90
19898;DHT22;10111;50.814;4.572;2023-03-14T02:27:52;11.10;99.90
19898;DHT22;10111;50.814;4.572;2023-03-14T02:30:24;11.20;99.90
19898;DHT22;10111;50.814;4.572;2023-03-14T02:33:14;11.10;99.90
19898;DHT22;10111;50.814;4.572;2023-03-14T02:35:53;11.10;99.90
19898;DHT22;10111;50.814;4.572;2023-03-14T02:38:29;11.30;99.90
19898;DHT22;10111;50.814;4.572;2023-03-14T02:40:56;11.20;99.90
19898;DHT22;10111;50.814;4.572;2023-03-14T02:43:22;11.20;99.90
19898;DHT22;10111;50.814;4.572;2023-03-14T02:45:50;11.20;99.90
19898;DHT22;10111;50.814;4.572;2023-03-14T02:48:19;11.20;99.90
19898;DHT22;10111;50.814;4.572;2023-03-14T02:50:47;11.20;99.90
19898;DHT22;10111;50.814;4.572;2023-03-14T02:53:18;11.20;99.90
19898;DHT22;10111;50.814;4.572;2023-03-14T02:55:48;11.30;99.90
19898;DHT22;10111;50.814;4.572;2023-03-14T02:58:14;11.30;99.90
19898;DHT22;10111;50.814;4.572;2023-03-14T03:00:40;11.20;99.90
19898;DHT22;10111;50.814;4.572;2023-03-14T03:03:06;11.30;99.90
19898;DHT22;10111;50.814;4.572;2023-03-14T03:05:32;11.40;99.90
19898;DHT22;10111;50.814;4.572;2023-03-14T03:07:57;11.40;99.90
19898;DHT22;10111;50.814;4.572;2023-03-14T03:10:23;11.40;99.90
19898;DHT22;10111;50.814;4.572;2023-03-14T03:12:49;11.30;99.90
19898;DHT22;10111;50.814;4.572;2023-03-14T03:15:15;11.50;99.90
19898;DHT22;10111;50.814;4.572;2023-03-14T03:17:41;11.50;99.90
19898;DHT22;10111;50.814;4.572;2023-03-14T03:20:07;11.60;99.90
19898;DHT22;10111;50.814;4.572;2023-03-14T03:22:37;11.60;99.90
19898;DHT22;10111;50.814;4.572;2023-03-14T03:25:05;11.60;99.90
19898;DHT22;10111;50.814;4.572;2023-03-14T03:27:32;11.60;99.90
19898;DHT22;10111;50.814;4.572;2023-03-14T03:29:58;11.50;99.90
19898;DHT22;10111;50.814;4.572;2023-03-14T03:32:24;11.60;99.90
19898;DHT22;10111;50.814;4.572;2023-03-14T03:34:50;11.50;99.90
19898;DHT22;10111;50.814;4.572;2023-03-14T03:37:16;11.60;99.90
19898;DHT22;10111;50.814;4.572;2023-03-14T03:39:41;11.50;99.90
19898;DHT22;10111;50.814;4.572;2023-03-14T03:42:07;11.40;99.90
19898;DHT22;10111;50.814;4.572;2023-03-14T03:44:33;11.40;99.90
19898;DHT22;10111;50.814;4.572;2023-03-14T03:46:59;11.40;99.90
19898;DHT22;10111;50.814;4.572;2023-03-14T03:49:27;11.40;99.90
19898;DHT22;10111;50.814;4.572;2023-03-14T03:51:53;11.40;99.90
19898;DHT22;10111;50.814;4.572;2023-03-14T03:54:19;11.40;99.90
19898;DHT22;10111;50.814;4.572;2023-03-14T03:56:44;11.50;99.90
19898;DHT22;10111;50.814;4.572;2023-03-14T03:59:10;11.70;99.90
19898;DHT22;10111;50.814;4.572;2023-03-14T04:01:36;11.60;99.90
19898;DHT22;10111;50.814;4.572;2023-03-14T04:04:01;11.50;99.90
19898;DHT22;10111;50.814;4.572;2023-03-14T04:06:27;11.40;99.90
19898;DHT22;10111;50.814;4.572;2023-03-14T04:08:54;11.40;99.90
19898;DHT22;10111;50.814;4.572;2023-03-14T04:11:19;11.40;99.90
19898;DHT22;10111;50.814;4.572;2023-03-14T04:13:45;11.40;99.90
19898;DHT22;10111;50.814;4.572;2023-03-14T04:16:22;11.30;99.90
19898;DHT22;10111;50.814;4.572;2023-03-14T04:18:48;11.40;99.90
19898;DHT22;10111;50.814;4.572;2023-03-14T04:21:14;11.30;99.90
19898;DHT22;10111;50.814;4.572;2023-03-14T04:23:39;11.50;99.90
19898;DHT22;10111;50.814;4.572;2023-03-14T04:26:06;11.40;99.90
19898;DHT22;10111;50.814;4.572;2023-03-14T04:28:31;11.50;99.90
19898;DHT22;10111;50.814;4.572;2023-03-14T04:30:57;11.50;99.90
19898;DHT22;10111;50.814;4.572;2023-03-14T04:33:23;11.60;99.90
19898;DHT22;10111;50.814;4.572;2023-03-14T04:35:49;11.60;99.90
19898;DHT22;10111;50.814;4.572;2023-03-14T04:38:16;11.50;99.90
19898;DHT22;10111;50.814;4.572;2023-03-14T04:40:42;11.50;99.90
19898;DHT22;10111;50.814;4.572;2023-03-14T04:43:10;11.40;99.90
19898;DHT22;10111;50.814;4.572;2023-03-14T04:45:36;11.50;99.90
19898;DHT22;10111;50.814;4.572;2023-03-14T04:48:02;11.50;99.90
19898;DHT22;10111;50.814;4.572;2023-03-14T04:50:27;11.50;99.90
19898;DHT22;10111;50.814;4.572;2023-03-14T04:52:53;11.40;99.90
19898;DHT22;10111;50.814;4.572;2023-03-14T04:55:19;11.30;99.90
19898;DHT22;10111;50.814;4.572;2023-03-14T04:57:44;11.30;99.90
19898;DHT22;10111;50.814;4.572;2023-03-14T05:00:10;11.30;99.90
19898;DHT22;10111;50.814;4.572;2023-03-14T05:02:36;11.20;99.90
19898;DHT22;10111;50.814;4.572;2023-03-14T05:05:02;11.30;99.90
19898;DHT22;10111;50.814;4.572;2023-03-14T05:07:28;11.40;99.90
19898;DHT22;10111;50.814;4.572;2023-03-14T05:09:53;11.60;99.90
19898;DHT22;10111;50.814;4.572;2023-03-14T05:12:20;11.40;99.90
19898;DHT22;10111;50.814;4.572;2023-03-14T05:14:46;11.30;99.90
19898;DHT22;10111;50.814;4.572;2023-03-14T05:17:12;11.10;99.90
19898;DHT22;10111;50.814;4.572;2023-03-14T05:19:40;11.10;99.90
19898;DHT22;10111;50.814;4.572;2023-03-14T05:22:06;11.30;99.90
19898;DHT22;10111;50.814;4.572;2023-03-14T05:24:32;11.40;99.90
19898;DHT22;10111;50.814;4.572;2023-03-14T05:26:58;11.40;99.90
19898;DHT22;10111;50.814;4.572;2023-03-14T05:29:23;11.70;99.90
19898;DHT22;10111;50.814;4.572;2023-03-14T05:31:49;11.60;99.90
19898;DHT22;10111;50.814;4.572;2023-03-14T05:34:14;11.50;99.90
19898;DHT22;10111;50.814;4.572;2023-03-14T05:36:40;11.50;99.90
19898;DHT22;10111;50.814;4.572;2023-03-14T05:39:06;11.60;99.90
19898;DHT22;10111;50.814;4.572;2023-03-14T05:41:32;11.70;99.90
19898;DHT22;10111;50.814;4.572;2023-03-14T05:43:57;11.70;99.90
19898;DHT22;10111;50.814;4.572;2023-03-14T05:46:23;11.70;99.90
19898;DHT22;10111;50.814;4.572;2023-03-14T05:48:49;11.70;99.90
19898;DHT22;10111;50.814;4.572;2023-03-14T05:51:14;11.80;99.90
19898;DHT22;10111;50.814;4.572;2023-03-14T05:53:40;11.80;99.90
19898;DHT22;10111;50.814;4.572;2023-03-14T05:56:06;11.70;99.90
19898;DHT22;10111;50.814;4.572;2023-03-14T05:58:32;11.50;99.90
19898;DHT22;10111;50.814;4.572;2023-03-14T06:01:00;11.40;99.90
19898;DHT22;10111;50.814;4.572;2023-03-14T06:03:26;11.40;99.90
19898;DHT22;10111;50.814;4.572;2023-03-14T06:05:52;11.40;99.90
19898;DHT22;10111;50.814;4.572;2023-03-14T06:08:17;11.40;99.90
19898;DHT22;10111;50.814;4.572;2023-03-14T06:10:43;11.50;99.90
19898;DHT22;10111;50.814;4.572;2023-03-14T06:13:09;11.60;99.90
19898;DHT22;10111;50.814;4.572;2023-03-14T06:15:34;11.50;99.90
19898;DHT22;10111;50.814;4.572;2023-03-14T06:18:01;11.60;99.90
19898;DHT22;10111;50.814;4.572;2023-03-14T06:20:27;11.70;99.90
19898;DHT22;10111;50.814;4.572;2023-03-14T06:22:52;11.60;99.90
19898;DHT22;10111;50.814;4.572;2023-03-14T06:25:18;11.50;99.90
19898;DHT22;10111;50.814;4.572;2023-03-14T06:27:44;11.50;99.90
19898;DHT22;10111;50.814;4.572;2023-03-14T06:30:10;11.60;99.90
19898;DHT22;10111;50.814;4.572;2023-03-14T06:32:36;11.40;99.90
19898;DHT22;10111;50.814;4.572;2023-03-14T06:35:01;11.40;99.90
19898;DHT22;10111;50.814;4.572;2023-03-14T06:37:28;11.30;99.90
19898;DHT22;10111;50.814;4.572;2023-03-14T06:39:55;11.30;99.90
19898;DHT22;10111;50.814;4.572;2023-03-14T06:42:21;11.20;99.90
19898;DHT22;10111;50.814;4.572;2023-03-14T06:44:47;11.20;99.90
19898;DHT22;10111;50.814;4.572;2023-03-14T06:47:13;11.30;99.90
19898;DHT22;10111;50.814;4.572;2023-03-14T06:49:38;11.40;99.90
19898;DHT22;10111;50.814;4.572;2023-03-14T06:52:04;11.50;99.90
19898;DHT22;10111;50.814;4.572;2023-03-14T06:54:30;11.50;99.90
19898;DHT22;10111;50.814;4.572;2023-03-14T06:56:55;11.60;99.90
19898;DHT22;10111;50.814;4.572;2023-03-14T06:59:21;11.70;99.90
19898;DHT22;10111;50.814;4.572;2023-03-14T07:01:47;11.60;99.90
19898;DHT22;10111;50.814;4.572;2023-03-14T07:04:13;11.50;99.90
19898;DHT22;10111;50.814;4.572;2023-03-14T07:06:39;11.70;99.90
19898;DHT22;10111;50.814;4.572;2023-03-14T07:09:12;11.80;99.90
19898;DHT22;10111;50.814;4.572;2023-03-14T07:11:39;11.30;99.90
19898;DHT22;10111;50.814;4.572;2023-03-14T07:14:04;10.90;99.90
19898;DHT22;10111;50.814;4.572;2023-03-14T07:16:30;10.50;99.90
19898;DHT22;10111;50.814;4.572;2023-03-14T07:18:59;10.30;99.90
19898;DHT22;10111;50.814;4.572;2023-03-14T07:21:24;10.00;99.90
19898;DHT22;10111;50.814;4.572;2023-03-14T07:23:50;9.80;99.90
19898;DHT22;10111;50.814;4.572;2023-03-14T07:26:16;9.70;99.90
19898;DHT22;10111;50.814;4.572;2023-03-14T07:28:42;9.40;99.90
19898;DHT22;10111;50.814;4.572;2023-03-14T07:31:07;9.30;99.90
19898;DHT22;10111;50.814;4.572;2023-03-14T07:33:33;9.40;99.90
19898;DHT22;10111;50.814;4.572;2023-03-14T07:35:59;9.10;99.90
19898;DHT22;10111;50.814;4.572;2023-03-14T07:38:25;9.10;99.90
19898;DHT22;10111;50.814;4.572;2023-03-14T07:40:52;9.00;99.90
19898;DHT22;10111;50.814;4.572;2023-03-14T07:43:22;8.90;99.90
19898;DHT22;10111;50.814;4.572;2023-03-14T07:45:48;9.00;99.90
19898;DHT22;10111;50.814;4.572;2023-03-14T07:48:14;9.00;99.90
19898;DHT22;10111;50.814;4.572;2023-03-14T07:50:39;8.80;99.90
19898;DHT22;10111;50.814;4.572;2023-03-14T07:53:05;8.80;99.90
19898;DHT22;10111;50.814;4.572;2023-03-14T07:55:30;8.90;99.90
19898;DHT22;10111;50.814;4.572;2023-03-14T07:57:56;8.90;99.90
19898;DHT22;10111;50.814;4.572;2023-03-14T08:00:22;8.90;99.90
19898;DHT22;10111;50.814;4.572;2023-03-14T08:02:48;9.00;99.90
19898;DHT22;10111;50.814;4.572;2023-03-14T08:05:13;9.00;99.90
19898;DHT22;10111;50.814;4.572;2023-03-14T08:07:39;9.10;99.90
19898;DHT22;10111;50.814;4.572;2023-03-14T08:10:05;9.10;99.90
19898;DHT22;10111;50.814;4.572;2023-03-14T08:12:31;9.10;99.90
19898;DHT22;10111;50.814;4.572;2023-03-14T08:14:57;9.10;99.90
19898;DHT22;10111;50.814;4.572;2023-03-14T08:17:22;9.10;99.90
19898;DHT22;10111;50.814;4.572;2023-03-14T08:19:48;9.00;99.90
19898;DHT22;10111;50.814;4.572;2023-03-14T08:22:13;9.00;99.90
19898;DHT22;10111;50.814;4.572;2023-03-14T08:24:39;8.90;99.90
19898;DHT22;10111;50.814;4.572;2023-03-14T08:27:06;9.00;99.90
19898;DHT22;10111;50.814;4.572;2023-03-14T08:29:32;8.80;99.90
19898;DHT22;10111;50.814;4.572;2023-03-14T08:31:57;8.70;99.90
19898;DHT22;10111;50.814;4.572;2023-03-14T08:34:23;8.70;99.90
19898;DHT22;10111;50.814;4.572;2023-03-14T08:36:48;8.70;99.90
19898;DHT22;10111;50.814;4.572;2023-03-14T08:39:14;8.70;99.90
19898;DHT22;10111;50.814;4.572;2023-03-14T08:41:40;8.70;99.90
19898;DHT22;10111;50.814;4.572;2023-03-14T08:44:08;8.90;99.90
19898;DHT22;10111;50.814;4.572;2023-03-14T08:46:35;8.90;99.90
19898;DHT22;10111;50.814;4.572;2023-03-14T08:49:01;8.90;99.90
19898;DHT22;10111;50.814;4.572;2023-03-14T08:51:26;8.80;99.90
19898;DHT22;10111;50.814;4.572;2023-03-14T08:53:52;8.70;99.90
19898;DHT22;10111;50.814;4.572;2023-03-14T08:56:17;8.70;99.90
19898;DHT22;10111;50.814;4.572;2023-03-14T08:58:43;8.60;99.90
19898;DHT22;10111;50.814;4.572;2023-03-14T09:01:10;8.50;99.90
19898;DHT22;10111;50.814;4.572;2023-03-14T09:03:37;8.50;99.90
19898;DHT22;10111;50.814;4.572;2023-03-14T09:06:08;8.50;99.90
19898;DHT22;10111;50.814;4.572;2023-03-14T09:08:35;8.50;99.90
19898;DHT22;10111;50.814;4.572;2023-03-14T09:11:01;8.40;99.90
19898;DHT22;10111;50.814;4.572;2023-03-14T09:13:26;8.40;99.90
19898;DHT22;10111;50.814;4.572;2023-03-14T09:15:53;8.30;99.90
19898;DHT22;10111;50.814;4.572;2023-03-14T09:18:19;8.30;99.90
19898;DHT22;10111;50.814;4.572;2023-03-14T09:20:45;8.20;99.90
19898;DHT22;10111;50.814;4.572;2023-03-14T09:23:10;8.10;99.90
19898;DHT22;10111;50.814;4.572;2023-03-14T09:25:36;8.20;99.90
19898;DHT22;10111;50.814;4.572;2023-03-14T09:28:02;8.20;99.90
19898;DHT22;10111;50.814;4.572;2023-03-14T09:30:27;8.20;99.90
19898;DHT22;10111;50.814;4.572;2023-03-14T09:32:53;8.20;99.90
19898;DHT22;10111;50.814;4.572;2023-03-14T09:35:19;8.10;99.90
19898;DHT22;10111;50.814;4.572;2023-03-14T09:37:45;8.20;99.90
19898;DHT22;10111;50.814;4.572;2023-03-14T09:40:13;8.20;99.90
19898;DHT22;10111;50.814;4.572;2023-03-14T09:42:39;8.10;99.90
19898;DHT22;10111;50.814;4.572;2023-03-14T09:45:26;8.00;99.90
19898;DHT22;10111;50.814;4.572;2023-03-14T09:47:53;7.90;99.90
19898;DHT22;10111;50.814;4.572;2023-03-14T09:50:19;8.00;99.90
19898;DHT22;10111;50.814;4.572;2023-03-14T09:52:56;8.10;99.90
19898;DHT22;10111;50.814;4.572;2023-03-14T09:55:22;8.30;99.90
19898;DHT22;10111;50.814;4.572;2023-03-14T09:57:56;8.20;99.90
19898;DHT22;10111;50.814;4.572;2023-03-14T10:00:26;8.30;99.90
19898;DHT22;10111;50.814;4.572;2023-03-14T10:03:26;8.30;99.90
19898;DHT22;10111;50.814;4.572;2023-03-14T10:05:52;8.40;99.90
19898;DHT22;10111;50.814;4.572;2023-03-14T10:08:18;8.40;99.90
19898;DHT22;10111;50.814;4.572;2023-03-14T10:10:44;8.50;99.90
19898;DHT22;10111;50.814;4.572;2023-03-14T10:13:22;8.50;99.90
19898;DHT22;10111;50.814;4.572;2023-03-14T10:16:02;8.50;99.90
19898;DHT22;10111;50.814;4.572;2023-03-14T10:18:30;8.60;99.90
19898;DHT22;10111;50.814;4.572;2023-03-14T10:21:24;8.80;99.90
19898;DHT22;10111;50.814;4.572;2023-03-14T10:23:51;8.80;99.90
19898;DHT22;10111;50.814;4.572;2023-03-14T10:26:26;9.10;99.90
19898;DHT22;10111;50.814;4.572;2023-03-14T10:28:54;9.20;99.90
19898;DHT22;10111;50.814;4.572;2023-03-14T10:31:26;9.20;99.90
19898;DHT22;10111;50.814;4.572;2023-03-14T10:34:00;9.20;99.90
19898;DHT22;10111;50.814;4.572;2023-03-14T10:36:29;9.20;99.90
19898;DHT22;10111;50.814;4.572;2023-03-14T10:41:54;9.20;99.90
19898;DHT22;10111;50.814;4.572;2023-03-14T10:44:23;8.90;99.90
19898;DHT22;10111;50.814;4.572;2023-03-14T10:47:03;8.80;99.90
19898;DHT22;10111;50.814;4.572;2023-03-14T10:49:35;8.70;99.90
19898;DHT22;10111;50.814;4.572;2023-03-14T10:52:15;8.60;99.90
19898;DHT22;10111;50.814;4.572;2023-03-14T10:54:47;8.50;99.90
19898;DHT22;10111;50.814;4.572;2023-03-14T10:57:13;8.40;99.90
19898;DHT22;10111;50.814;4.572;2023-03-14T10:59:41;8.40;99.90
19898;DHT22;10111;50.814;4.572;2023-03-14T11:05:21;8.30;99.90
19898;DHT22;10111;50.814;4.572;2023-03-14T11:07:52;8.20;99.90
19898;DHT22;10111;50.814;4.572;2023-03-14T11:21:29;7.90;99.90
19898;DHT22;10111;50.814;4.572;2023-03-14T11:24:21;7.90;99.90
19898;DHT22;10111;50.814;4.572;2023-03-14T11:29:40;7.60;99.90
19898;DHT22;10111;50.814;4.572;2023-03-14T11:32:17;7.60;99.90
19898;DHT22;10111;50.814;4.572;2023-03-14T11:34:52;7.70;99.90
19898;DHT22;10111;50.814;4.572;2023-03-14T11:37:32;7.70;99.90
19898;DHT22;10111;50.814;4.572;2023-03-14T11:42:37;7.60;99.90
19898;DHT22;10111;50.814;4.572;2023-03-14T11:45:05;7.60;99.90
19898;DHT22;10111;50.814;4.572;2023-03-14T11:47:39;7.50;99.90
19898;DHT22;10111;50.814;4.572;2023-03-14T11:50:28;7.40;99.90
19898;DHT22;10111;50.814;4.572;2023-03-14T11:55:31;7.20;99.90
19898;DHT22;10111;50.814;4.572;2023-03-14T11:58:09;7.20;99.90
19898;DHT22;10111;50.814;4.572;2023-03-14T12:00:38;7.20;99.90
19898;DHT22;10111;50.814;4.572;2023-03-14T12:08:53;7.20;99.90
19898;DHT22;10111;50.814;4.572;2023-03-14T12:13:56;7.30;99.90
19898;DHT22;10111;50.814;4.572;2023-03-14T12:16:32;7.30;99.90
19898;DHT22;10111;50.814;4.572;2023-03-14T12:24:47;7.20;99.90
19898;DHT22;10111;50.814;4.572;2023-03-14T12:27:39;7.30;99.90
19898;DHT22;10111;50.814;4.572;2023-03-14T12:30:18;7.40;99.90
19898;DHT22;10111;50.814;4.572;2023-03-14T12:38:04;7.60;99.90
19898;DHT22;10111;50.814;4.572;2023-03-14T12:40:33;7.80;99.90
19898;DHT22;10111;50.814;4.572;2023-03-14T12:43:02;7.90;99.90
19898;DHT22;10111;50.814;4.572;2023-03-14T12:45:36;7.90;99.90
19898;DHT22;10111;50.814;4.572;2023-03-14T12:50:46;7.90;99.90
19898;DHT22;10111;50.814;4.572;2023-03-14T12:53:33;7.90;99.90
19898;DHT22;10111;50.814;4.572;2023-03-14T12:56:16;7.90;99.90
19898;DHT22;10111;50.814;4.572;2023-03-14T12:59:32;8.00;99.90
19898;DHT22;10111;50.814;4.572;2023-03-14T13:04:29;7.70;99.90
19898;DHT22;10111;50.814;4.572;2023-03-14T13:06:59;7.70;99.90
19898;DHT22;10111;50.814;4.572;2023-03-14T13:12:03;7.70;99.90
19898;DHT22;10111;50.814;4.572;2023-03-14T13:14:33;7.70;99.90
19898;DHT22;10111;50.814;4.572;2023-03-14T13:17:01;7.70;99.90
19898;DHT22;10111;50.814;4.572;2023-03-14T13:19:30;7.70;99.90
19898;DHT22;10111;50.814;4.572;2023-03-14T13:22:03;7.70;99.90
19898;DHT22;10111;50.814;4.572;2023-03-14T13:24:29;7.80;99.90
19898;DHT22;10111;50.814;4.572;2023-03-14T13:26:58;7.90;99.90
19898;DHT22;10111;50.814;4.572;2023-03-14T13:29:28;8.00;99.90
19898;DHT22;10111;50.814;4.572;2023-03-14T13:31:59;8.00;99.90
19898;DHT22;10111;50.814;4.572;2023-03-14T13:34:26;8.10;99.90
19898;DHT22;10111;50.814;4.572;2023-03-14T13:36:54;8.00;99.90
19898;DHT22;10111;50.814;4.572;2023-03-14T13:39:21;8.00;99.90
19898;DHT22;10111;50.814;4.572;2023-03-14T13:41:50;7.90;99.90
19898;DHT22;10111;50.814;4.572;2023-03-14T13:44:24;8.00;99.90
19898;DHT22;10111;50.814;4.572;2023-03-14T13:46:50;7.80;99.90
19898;DHT22;10111;50.814;4.572;2023-03-14T13:49:23;7.80;99.90
19898;DHT22;10111;50.814;4.572;2023-03-14T13:51:49;7.80;99.90
19898;DHT22;10111;50.814;4.572;2023-03-14T13:54:17;7.70;99.90
19898;DHT22;10111;50.814;4.572;2023-03-14T13:56:43;7.50;99.90
19898;DHT22;10111;50.814;4.572;2023-03-14T13:59:30;7.50;99.90
19898;DHT22;10111;50.814;4.572;2023-03-14T14:01:58;7.70;99.90
19898;DHT22;10111;50.814;4.572;2023-03-14T14:04:25;7.70;99.90
19898;DHT22;10111;50.814;4.572;2023-03-14T14:07:09;7.60;99.90
19898;DHT22;10111;50.814;4.572;2023-03-14T14:09:42;7.80;99.90
19898;DHT22;10111;50.814;4.572;2023-03-14T14:12:16;7.70;99.90
19898;DHT22;10111;50.814;4.572;2023-03-14T14:17:28;7.80;99.90
19898;DHT22;10111;50.814;4.572;2023-03-14T14:19:55;7.90;99.90
19898;DHT22;10111;50.814;4.572;2023-03-14T14:22:22;7.90;99.90
19898;DHT22;10111;50.814;4.572;2023-03-14T14:24:48;8.00;99.90
19898;DHT22;10111;50.814;4.572;2023-03-14T14:27:43;8.00;99.90
19898;DHT22;10111;50.814;4.572;2023-03-14T14:32:49;8.20;99.90
19898;DHT22;10111;50.814;4.572;2023-03-14T14:35:33;8.30;99.90
19898;DHT22;10111;50.814;4.572;2023-03-14T14:37:59;8.40;99.90
19898;DHT22;10111;50.814;4.572;2023-03-14T14:40:30;8.60;99.90
19898;DHT22;10111;50.814;4.572;2023-03-14T14:43:04;8.60;99.90
19898;DHT22;10111;50.814;4.572;2023-03-14T14:45:30;8.80;99.90
19898;DHT22;10111;50.814;4.572;2023-03-14T14:50:37;8.80;99.90
19898;DHT22;10111;50.814;4.572;2023-03-14T14:55:58;8.70;99.90
19898;DHT22;10111;50.814;4.572;2023-03-14T14:58:30;8.50;99.90
19898;DHT22;10111;50.814;4.572;2023-03-14T15:01:18;8.30;99.90
19898;DHT22;10111;50.814;4.572;2023-03-14T15:03:47;8.00;99.90
19898;DHT22;10111;50.814;4.572;2023-03-14T15:06:15;7.70;99.90
19898;DHT22;10111;50.814;4.572;2023-03-14T15:08:43;7.50;99.90
19898;DHT22;10111;50.814;4.572;2023-03-14T15:11:18;7.20;99.90
19898;DHT22;10111;50.814;4.572;2023-03-14T15:13:43;7.00;99.90
19898;DHT22;10111;50.814;4.572;2023-03-14T15:16:14;6.80;99.90
19898;DHT22;10111;50.814;4.572;2023-03-14T15:18:41;6.80;99.90
19898;DHT22;10111;50.814;4.572;2023-03-14T15:21:09;6.80;99.90
19898;DHT22;10111;50.814;4.572;2023-03-14T15:23:35;6.70;99.90
19898;DHT22;10111;50.814;4.572;2023-03-14T15:26:01;6.80;99.90
19898;DHT22;10111;50.814;4.572;2023-03-14T15:28:28;6.90;99.90
19898;DHT22;10111;50.814;4.572;2023-03-14T15:30:56;6.90;99.90
19898;DHT22;10111;50.814;4.572;2023-03-14T15:33:23;7.10;99.90
19898;DHT22;10111;50.814;4.572;2023-03-14T15:35:49;7.30;99.90
19898;DHT22;10111;50.814;4.572;2023-03-14T15:38:18;7.30;99.90
19898;DHT22;10111;50.814;4.572;2023-03-14T15:40:51;7.30;99.90
19898;DHT22;10111;50.814;4.572;2023-03-14T15:43:17;7.60;99.90
19898;DHT22;10111;50.814;4.572;2023-03-14T15:45:44;7.50;99.90
19898;DHT22;10111;50.814;4.572;2023-03-14T15:48:17;7.40;99.90
19898;DHT22;10111;50.814;4.572;2023-03-14T15:50:44;7.50;99.90
19898;DHT22;10111;50.814;4.572;2023-03-14T15:53:10;7.50;99.90
19898;DHT22;10111;50.814;4.572;2023-03-14T15:55:36;7.50;99.90
19898;DHT22;10111;50.814;4.572;2023-03-14T15:58:01;7.60;99.90
19898;DHT22;10111;50.814;4.572;2023-03-14T16:00:28;7.60;99.90
19898;DHT22;10111;50.814;4.572;2023-03-14T16:02:55;7.60;99.90
19898;DHT22;10111;50.814;4.572;2023-03-14T16:05:20;7.70;99.90
19898;DHT22;10111;50.814;4.572;2023-03-14T16:07:46;7.60;99.90
19898;DHT22;10111;50.814;4.572;2023-03-14T16:10:13;7.60;99.90
19898;DHT22;10111;50.814;4.572;2023-03-14T16:12:39;7.60;99.90
19898;DHT22;10111;50.814;4.572;2023-03-14T16:15:06;7.50;99.90
19898;DHT22;10111;50.814;4.572;2023-03-14T16:17:32;7.50;99.90
19898;DHT22;10111;50.814;4.572;2023-03-14T16:19:58;7.50;99.90
19898;DHT22;10111;50.814;4.572;2023-03-14T16:22:24;7.40;99.90
19898;DHT22;10111;50.814;4.572;2023-03-14T16:24:49;7.40;99.90
19898;DHT22;10111;50.814;4.572;2023-03-14T16:27:15;7.40;99.90
19898;DHT22;10111;50.814;4.572;2023-03-14T16:29:41;7.20;99.90
19898;DHT22;10111;50.814;4.572;2023-03-14T16:32:08;7.10;99.90
19898;DHT22;10111;50.814;4.572;2023-03-14T16:34:33;6.90;99.90
19898;DHT22;10111;50.814;4.572;2023-03-14T16:36:59;6.80;99.90
19898;DHT22;10111;50.814;4.572;2023-03-14T16:39:24;6.80;99.90
19898;DHT22;10111;50.814;4.572;2023-03-14T16:41:53;6.80;99.90
19898;DHT22;10111;50.814;4.572;2023-03-14T16:44:18;6.90;99.90
19898;DHT22;10111;50.814;4.572;2023-03-14T16:46:44;7.00;99.90
19898;DHT22;10111;50.814;4.572;2023-03-14T16:49:10;7.10;99.90
19898;DHT22;10111;50.814;4.572;2023-03-14T16:51:35;7.20;99.90
19898;DHT22;10111;50.814;4.572;2023-03-14T16:54:01;7.20;99.90
19898;DHT22;10111;50.814;4.572;2023-03-14T16:56:27;7.10;99.90